sensor_id;sensor_type;location;lat;lon;timestamp;temperature;humidity
43249;DHT22;29216;51.248;6.808;2023-01-24T00:01:21;3.80;84.10
43249;DHT22;29216;51.248;6.808;2023-01-24T00:03:46;3.80;81.70
43249;DHT22;29216;51.248;6.808;2023-01-24T00:06:12;3.80;79.30
43249;DHT22;29216;51.248;6.808;2023-01-24T00:08:38;3.80;80.00
43249;DHT22;29216;51.248;6.808;2023-01-24T00:11:06;3.80;76.70
43249;DHT22;29216;51.248;6.808;2023-01-24T00:13:33;3.90;76.90
43249;DHT22;29216;51.248;6.808;2023-01-24T00:18:35;3.90;80.20
43249;DHT22;29216;51.248;6.808;2023-01-24T00:21:03;3.80;80.70
43249;DHT22;29216;51.248;6.808;2023-01-24T00:23:29;3.80;80.60
43249;DHT22;29216;51.248;6.808;2023-01-24T00:25:55;3.80;77.30
43249;DHT22;29216;51.248;6.808;2023-01-24T00:28:20;3.90;73.00
43249;DHT22;29216;51.248;6.808;2023-01-24T00:30:46;3.80;76.50
43249;DHT22;29216;51.248;6.808;2023-01-24T00:33:11;3.80;75.80
43249;DHT22;29216;51.248;6.808;2023-01-24T00:35:37;3.80;77.20
43249;DHT22;29216;51.248;6.808;2023-01-24T00:38:03;3.70;82.40
43249;DHT22;29216;51.248;6.808;2023-01-24T00:40:29;3.80;81.30
43249;DHT22;29216;51.248;6.808;2023-01-24T00:42:54;3.80;77.50
43249;DHT22;29216;51.248;6.808;2023-01-24T00:45:20;3.80;78.40
43249;DHT22;29216;51.248;6.808;2023-01-24T00:47:46;3.70;84.50
43249;DHT22;29216;51.248;6.808;2023-01-24T00:50:11;3.70;86.30
43249;DHT22;29216;51.248;6.808;2023-01-24T00:52:37;3.70;86.60
43249;DHT22;29216;51.248;6.808;2023-01-24T00:55:03;3.60;90.70
43249;DHT22;29216;51.248;6.808;2023-01-24T00:57:29;3.70;91.90
43249;DHT22;29216;51.248;6.808;2023-01-24T00:59:54;3.80;86.90
43249;DHT22;29216;51.248;6.808;2023-01-24T01:02:20;3.70;80.30
43249;DHT22;29216;51.248;6.808;2023-01-24T01:04:46;3.70;78.40
43249;DHT22;29216;51.248;6.808;2023-01-24T01:07:11;3.70;79.60
43249;DHT22;29216;51.248;6.808;2023-01-24T01:09:37;3.60;81.20
43249;DHT22;29216;51.248;6.808;2023-01-24T01:12:03;3.60;83.20
43249;DHT22;29216;51.248;6.808;2023-01-24T01:14:28;3.50;84.50
43249;DHT22;29216;51.248;6.808;2023-01-24T01:16:54;3.60;83.30
43249;DHT22;29216;51.248;6.808;2023-01-24T01:19:20;3.50;85.10
43249;DHT22;29216;51.248;6.808;2023-01-24T01:21:45;3.60;83.30
43249;DHT22;29216;51.248;6.808;2023-01-24T01:24:11;3.50;84.10
43249;DHT22;29216;51.248;6.808;2023-01-24T01:26:37;3.60;85.00
43249;DHT22;29216;51.248;6.808;2023-01-24T01:29:02;3.50;86.10
43249;DHT22;29216;51.248;6.808;2023-01-24T01:31:28;3.50;83.80
43249;DHT22;29216;51.248;6.808;2023-01-24T01:33:53;3.50;83.60
43249;DHT22;29216;51.248;6.808;2023-01-24T01:36:19;3.40;87.60
43249;DHT22;29216;51.248;6.808;2023-01-24T01:38:45;3.40;90.90
43249;DHT22;29216;51.248;6.808;2023-01-24T01:41:13;3.50;88.80
43249;DHT22;29216;51.248;6.808;2023-01-24T01:43:38;3.40;86.20
43249;DHT22;29216;51.248;6.808;2023-01-24T01:46:26;3.50;81.00
43249;DHT22;29216;51.248;6.808;2023-01-24T01:48:56;3.60;74.50
43249;DHT22;29216;51.248;6.808;2023-01-24T01:51:27;3.60;78.30
43249;DHT22;29216;51.248;6.808;2023-01-24T01:54:06;3.50;78.80
43249;DHT22;29216;51.248;6.808;2023-01-24T01:56:38;3.50;82.80
43249;DHT22;29216;51.248;6.808;2023-01-24T01:59:09;3.50;80.60
43249;DHT22;29216;51.248;6.808;2023-01-24T02:01:37;3.60;77.50
43249;DHT22;29216;51.248;6.808;2023-01-24T02:04:08;3.60;71.40
43249;DHT22;29216;51.248;6.808;2023-01-24T02:06:54;3.50;72.40
43249;DHT22;29216;51.248;6.808;2023-01-24T02:09:23;3.50;73.60
43249;DHT22;29216;51.248;6.808;2023-01-24T02:11:53;3.50;74.50
43249;DHT22;29216;51.248;6.808;2023-01-24T02:14:20;3.50;64.90
43249;DHT22;29216;51.248;6.808;2023-01-24T02:17:06;3.50;63.90
43249;DHT22;29216;51.248;6.808;2023-01-24T02:25:31;3.60;64.10
43249;DHT22;29216;51.248;6.808;2023-01-24T02:27:57;3.60;61.10
43249;DHT22;29216;51.248;6.808;2023-01-24T02:30:24;3.50;65.00
43249;DHT22;29216;51.248;6.808;2023-01-24T02:32:50;3.50;69.70
43249;DHT22;29216;51.248;6.808;2023-01-24T02:35:28;3.50;69.90
43249;DHT22;29216;51.248;6.808;2023-01-24T02:37:56;3.60;65.90
43249;DHT22;29216;51.248;6.808;2023-01-24T02:40:23;3.60;63.80
43249;DHT22;29216;51.248;6.808;2023-01-24T02:42:50;3.50;70.40
43249;DHT22;29216;51.248;6.808;2023-01-24T02:45:21;3.50;71.20
43249;DHT22;29216;51.248;6.808;2023-01-24T02:47:50;3.50;64.00
43249;DHT22;29216;51.248;6.808;2023-01-24T02:50:17;3.60;64.10
43249;DHT22;29216;51.248;6.808;2023-01-24T02:52:44;3.50;57.60
43249;DHT22;29216;51.248;6.808;2023-01-24T02:55:29;3.60;57.70
43249;DHT22;29216;51.248;6.808;2023-01-24T02:57:56;3.60;59.10
43249;DHT22;29216;51.248;6.808;2023-01-24T03:00:32;3.50;59.30
43249;DHT22;29216;51.248;6.808;2023-01-24T03:02:57;3.40;65.20
43249;DHT22;29216;51.248;6.808;2023-01-24T03:05:23;3.50;67.70
43249;DHT22;29216;51.248;6.808;2023-01-24T03:07:48;3.50;61.40
43249;DHT22;29216;51.248;6.808;2023-01-24T03:10:16;3.50;62.20
43249;DHT22;29216;51.248;6.808;2023-01-24T03:12:43;3.60;65.40
43249;DHT22;29216;51.248;6.808;2023-01-24T03:15:28;3.60;63.80
43249;DHT22;29216;51.248;6.808;2023-01-24T03:18:12;3.60;66.70
43249;DHT22;29216;51.248;6.808;2023-01-24T03:20:56;3.50;64.00
43249;DHT22;29216;51.248;6.808;2023-01-24T03:23:40;3.40;70.80
43249;DHT22;29216;51.248;6.808;2023-01-24T03:26:25;3.50;77.20
43249;DHT22;29216;51.248;6.808;2023-01-24T03:29:09;3.50;77.90
43249;DHT22;29216;51.248;6.808;2023-01-24T03:31:53;3.50;76.00
43249;DHT22;29216;51.248;6.808;2023-01-24T03:34:38;3.50;76.40
43249;DHT22;29216;51.248;6.808;2023-01-24T03:37:21;3.60;70.80
43249;DHT22;29216;51.248;6.808;2023-01-24T03:40:11;3.70;64.00
43249;DHT22;29216;51.248;6.808;2023-01-24T03:42:37;3.70;57.60
43249;DHT22;29216;51.248;6.808;2023-01-24T03:45:22;3.70;51.50
43249;DHT22;29216;51.248;6.808;2023-01-24T03:47:53;3.70;53.10
43249;DHT22;29216;51.248;6.808;2023-01-24T03:50:32;3.60;51.80
43249;DHT22;29216;51.248;6.808;2023-01-24T03:53:18;3.70;44.30
43249;DHT22;29216;51.248;6.808;2023-01-24T03:55:44;3.70;48.50
43249;DHT22;29216;51.248;6.808;2023-01-24T03:58:10;3.60;46.20
43249;DHT22;29216;51.248;6.808;2023-01-24T04:00:37;3.50;47.40
43249;DHT22;29216;51.248;6.808;2023-01-24T04:03:03;3.50;55.10
43249;DHT22;29216;51.248;6.808;2023-01-24T04:05:29;3.50;51.80
43249;DHT22;29216;51.248;6.808;2023-01-24T04:07:55;3.50;46.50
43249;DHT22;29216;51.248;6.808;2023-01-24T04:10:22;3.50;48.90
43249;DHT22;29216;51.248;6.808;2023-01-24T04:12:48;3.50;54.70
43249;DHT22;29216;51.248;6.808;2023-01-24T04:15:25;3.50;55.60
43249;DHT22;29216;51.248;6.808;2023-01-24T04:17:51;3.50;45.60
43249;DHT22;29216;51.248;6.808;2023-01-24T04:20:17;3.40;51.80
43249;DHT22;29216;51.248;6.808;2023-01-24T04:22:43;3.40;47.00
43249;DHT22;29216;51.248;6.808;2023-01-24T04:25:09;3.40;51.80
43249;DHT22;29216;51.248;6.808;2023-01-24T04:27:36;3.40;47.50
43249;DHT22;29216;51.248;6.808;2023-01-24T04:30:04;3.40;53.70
43249;DHT22;29216;51.248;6.808;2023-01-24T04:32:30;3.40;49.60
43249;DHT22;29216;51.248;6.808;2023-01-24T04:34:56;3.40;49.30
43249;DHT22;29216;51.248;6.808;2023-01-24T04:37:21;3.40;50.10
43249;DHT22;29216;51.248;6.808;2023-01-24T04:39:47;3.40;50.10
43249;DHT22;29216;51.248;6.808;2023-01-24T04:42:13;3.40;50.40
43249;DHT22;29216;51.248;6.808;2023-01-24T04:44:38;3.50;52.90
43249;DHT22;29216;51.248;6.808;2023-01-24T04:47:04;3.50;50.40
43249;DHT22;29216;51.248;6.808;2023-01-24T04:49:30;3.50;53.50
43249;DHT22;29216;51.248;6.808;2023-01-24T04:51:56;3.50;51.30
43249;DHT22;29216;51.248;6.808;2023-01-24T04:54:21;3.50;58.50
43249;DHT22;29216;51.248;6.808;2023-01-24T04:56:47;3.50;54.50
43249;DHT22;29216;51.248;6.808;2023-01-24T04:59:13;3.50;56.30
43249;DHT22;29216;51.248;6.808;2023-01-24T05:01:39;3.50;46.40
43249;DHT22;29216;51.248;6.808;2023-01-24T05:04:05;3.40;47.80
43249;DHT22;29216;51.248;6.808;2023-01-24T05:06:32;3.40;50.00
43249;DHT22;29216;51.248;6.808;2023-01-24T05:08:58;3.40;56.20
43249;DHT22;29216;51.248;6.808;2023-01-24T05:11:25;3.50;50.90
43249;DHT22;29216;51.248;6.808;2023-01-24T05:13:51;3.40;49.00
43249;DHT22;29216;51.248;6.808;2023-01-24T05:16:17;3.50;49.80
43249;DHT22;29216;51.248;6.808;2023-01-24T05:18:43;3.50;45.70
43249;DHT22;29216;51.248;6.808;2023-01-24T05:21:13;3.40;49.70
43249;DHT22;29216;51.248;6.808;2023-01-24T05:23:40;3.40;56.10
43249;DHT22;29216;51.248;6.808;2023-01-24T05:26:06;3.40;51.10
43249;DHT22;29216;51.248;6.808;2023-01-24T05:28:32;3.40;45.90
43249;DHT22;29216;51.248;6.808;2023-01-24T05:31:03;3.40;50.50
43249;DHT22;29216;51.248;6.808;2023-01-24T05:33:30;3.30;51.10
43249;DHT22;29216;51.248;6.808;2023-01-24T05:35:59;3.30;49.60
43249;DHT22;29216;51.248;6.808;2023-01-24T05:38:25;3.40;51.10
43249;DHT22;29216;51.248;6.808;2023-01-24T05:40:51;3.40;53.80
43249;DHT22;29216;51.248;6.808;2023-01-24T05:43:16;3.30;53.90
43249;DHT22;29216;51.248;6.808;2023-01-24T05:45:42;3.40;54.00
43249;DHT22;29216;51.248;6.808;2023-01-24T05:48:08;3.40;52.50
43249;DHT22;29216;51.248;6.808;2023-01-24T05:50:35;3.40;54.90
43249;DHT22;29216;51.248;6.808;2023-01-24T05:53:02;3.30;47.70
43249;DHT22;29216;51.248;6.808;2023-01-24T05:55:28;3.30;50.90
43249;DHT22;29216;51.248;6.808;2023-01-24T05:57:54;3.30;55.90
43249;DHT22;29216;51.248;6.808;2023-01-24T06:00:19;3.30;56.70
43249;DHT22;29216;51.248;6.808;2023-01-24T06:02:45;3.30;49.30
43249;DHT22;29216;51.248;6.808;2023-01-24T06:05:11;3.30;52.60
43249;DHT22;29216;51.248;6.808;2023-01-24T06:07:37;3.30;51.30
43249;DHT22;29216;51.248;6.808;2023-01-24T06:10:03;3.30;49.70
43249;DHT22;29216;51.248;6.808;2023-01-24T06:12:29;3.30;56.40
43249;DHT22;29216;51.248;6.808;2023-01-24T06:14:54;3.30;56.30
43249;DHT22;29216;51.248;6.808;2023-01-24T06:17:20;3.30;51.40
43249;DHT22;29216;51.248;6.808;2023-01-24T06:19:46;3.30;51.70
43249;DHT22;29216;51.248;6.808;2023-01-24T06:22:44;3.30;50.20
43249;DHT22;29216;51.248;6.808;2023-01-24T06:25:22;3.30;46.10
43249;DHT22;29216;51.248;6.808;2023-01-24T06:27:48;3.30;46.80
43249;DHT22;29216;51.248;6.808;2023-01-24T06:30:15;3.30;52.50
43249;DHT22;29216;51.248;6.808;2023-01-24T06:32:58;3.30;53.00
43249;DHT22;29216;51.248;6.808;2023-01-24T06:38:31;3.30;51.30
43249;DHT22;29216;51.248;6.808;2023-01-24T06:40:59;3.30;52.70
43249;DHT22;29216;51.248;6.808;2023-01-24T06:43:26;3.30;54.50
43249;DHT22;29216;51.248;6.808;2023-01-24T06:45:51;3.30;55.70
43249;DHT22;29216;51.248;6.808;2023-01-24T06:48:17;3.30;54.70
43249;DHT22;29216;51.248;6.808;2023-01-24T06:50:44;3.30;57.90
43249;DHT22;29216;51.248;6.808;2023-01-24T06:53:10;3.30;58.90
43249;DHT22;29216;51.248;6.808;2023-01-24T06:55:36;3.30;63.80
43249;DHT22;29216;51.248;6.808;2023-01-24T06:58:04;3.40;57.00
43249;DHT22;29216;51.248;6.808;2023-01-24T07:00:30;3.40;55.90
43249;DHT22;29216;51.248;6.808;2023-01-24T07:03:04;3.40;57.10
43249;DHT22;29216;51.248;6.808;2023-01-24T07:05:32;3.30;56.70
43249;DHT22;29216;51.248;6.808;2023-01-24T07:07:59;3.30;64.30
43249;DHT22;29216;51.248;6.808;2023-01-24T07:10:24;3.30;53.90
43249;DHT22;29216;51.248;6.808;2023-01-24T07:12:50;3.30;56.20
43249;DHT22;29216;51.248;6.808;2023-01-24T07:15:16;3.40;55.60
43249;DHT22;29216;51.248;6.808;2023-01-24T07:17:42;3.40;51.10
43249;DHT22;29216;51.248;6.808;2023-01-24T07:20:09;3.40;58.10
43249;DHT22;29216;51.248;6.808;2023-01-24T07:22:37;3.40;54.00
43249;DHT22;29216;51.248;6.808;2023-01-24T07:25:05;3.40;53.70
43249;DHT22;29216;51.248;6.808;2023-01-24T07:27:31;3.40;51.30
43249;DHT22;29216;51.248;6.808;2023-01-24T07:29:56;3.40;52.80
43249;DHT22;29216;51.248;6.808;2023-01-24T07:32:22;3.40;53.80
43249;DHT22;29216;51.248;6.808;2023-01-24T07:34:48;3.40;51.40
43249;DHT22;29216;51.248;6.808;2023-01-24T07:37:14;3.40;48.70
43249;DHT22;29216;51.248;6.808;2023-01-24T07:39:39;3.40;54.90
43249;DHT22;29216;51.248;6.808;2023-01-24T07:42:05;3.40;55.40
43249;DHT22;29216;51.248;6.808;2023-01-24T07:44:31;3.40;52.20
43249;DHT22;29216;51.248;6.808;2023-01-24T07:46:56;3.50;57.60
43249;DHT22;29216;51.248;6.808;2023-01-24T07:49:22;3.50;55.80
43249;DHT22;29216;51.248;6.808;2023-01-24T07:51:48;3.50;41.70
43249;DHT22;29216;51.248;6.808;2023-01-24T07:54:14;3.40;49.80
43249;DHT22;29216;51.248;6.808;2023-01-24T07:56:39;3.40;49.70
43249;DHT22;29216;51.248;6.808;2023-01-24T07:59:05;3.40;58.60
43249;DHT22;29216;51.248;6.808;2023-01-24T08:01:31;3.50;58.10
43249;DHT22;29216;51.248;6.808;2023-01-24T08:03:57;3.60;43.60
43249;DHT22;29216;51.248;6.808;2023-01-24T08:06:24;3.70;34.40
43249;DHT22;29216;51.248;6.808;2023-01-24T08:08:50;3.60;39.50
43249;DHT22;29216;51.248;6.808;2023-01-24T08:11:15;3.70;38.00
43249;DHT22;29216;51.248;6.808;2023-01-24T08:13:46;3.60;43.30
43249;DHT22;29216;51.248;6.808;2023-01-24T08:16:12;3.60;44.40
43249;DHT22;29216;51.248;6.808;2023-01-24T08:18:39;3.60;47.60
43249;DHT22;29216;51.248;6.808;2023-01-24T08:21:06;3.60;44.10
43249;DHT22;29216;51.248;6.808;2023-01-24T08:23:32;3.60;42.50
43249;DHT22;29216;51.248;6.808;2023-01-24T08:25:58;3.60;42.40
43249;DHT22;29216;51.248;6.808;2023-01-24T08:28:24;3.70;37.90
43249;DHT22;29216;51.248;6.808;2023-01-24T08:30:50;3.70;41.60
43249;DHT22;29216;51.248;6.808;2023-01-24T08:33:15;3.70;45.60
43249;DHT22;29216;51.248;6.808;2023-01-24T08:35:45;3.70;45.80
43249;DHT22;29216;51.248;6.808;2023-01-24T08:38:11;3.70;49.40
43249;DHT22;29216;51.248;6.808;2023-01-24T08:40:37;3.80;46.10
43249;DHT22;29216;51.248;6.808;2023-01-24T08:43:03;3.80;43.50
43249;DHT22;29216;51.248;6.808;2023-01-24T08:45:29;3.90;43.40
43249;DHT22;29216;51.248;6.808;2023-01-24T08:47:55;4.00;33.70
43249;DHT22;29216;51.248;6.808;2023-01-24T08:50:21;4.00;34.10
43249;DHT22;29216;51.248;6.808;2023-01-24T08:52:48;4.00;33.50
43249;DHT22;29216;51.248;6.808;2023-01-24T08:55:14;4.00;29.60
43249;DHT22;29216;51.248;6.808;2023-01-24T08:57:40;4.00;35.20
43249;DHT22;29216;51.248;6.808;2023-01-24T09:00:06;4.10;29.30
43249;DHT22;29216;51.248;6.808;2023-01-24T09:02:32;4.10;27.80
43249;DHT22;29216;51.248;6.808;2023-01-24T09:05:00;4.10;29.00
43249;DHT22;29216;51.248;6.808;2023-01-24T09:07:25;4.10;25.70
43249;DHT22;29216;51.248;6.808;2023-01-24T09:09:51;4.10;27.40
43249;DHT22;29216;51.248;6.808;2023-01-24T09:12:16;4.10;24.50
43249;DHT22;29216;51.248;6.808;2023-01-24T09:14:42;4.20;22.40
43249;DHT22;29216;51.248;6.808;2023-01-24T09:17:08;4.30;16.80
43249;DHT22;29216;51.248;6.808;2023-01-24T09:19:33;4.30;15.30
43249;DHT22;29216;51.248;6.808;2023-01-24T09:21:59;4.30;10.30
43249;DHT22;29216;51.248;6.808;2023-01-24T09:24:24;4.10;16.50
43249;DHT22;29216;51.248;6.808;2023-01-24T09:26:50;4.00;15.70
43249;DHT22;29216;51.248;6.808;2023-01-24T09:29:16;3.90;18.70
43249;DHT22;29216;51.248;6.808;2023-01-24T09:31:42;3.90;18.30
43249;DHT22;29216;51.248;6.808;2023-01-24T09:34:07;3.90;19.40
43249;DHT22;29216;51.248;6.808;2023-01-24T09:36:33;3.90;30.00
43249;DHT22;29216;51.248;6.808;2023-01-24T09:38:59;3.90;23.00
43249;DHT22;29216;51.248;6.808;2023-01-24T09:44:25;4.00;16.70
43249;DHT22;29216;51.248;6.808;2023-01-24T09:46:53;4.00;18.50
43249;DHT22;29216;51.248;6.808;2023-01-24T09:52:06;4.20;19.10
43249;DHT22;29216;51.248;6.808;2023-01-24T09:57:11;4.20;10.80
43249;DHT22;29216;51.248;6.808;2023-01-24T09:59:39;4.20;9.70
43249;DHT22;29216;51.248;6.808;2023-01-24T10:02:18;4.20;16.40
43249;DHT22;29216;51.248;6.808;2023-01-24T10:04:45;4.30;8.80
43249;DHT22;29216;51.248;6.808;2023-01-24T10:23:53;4.40;7.90
43249;DHT22;29216;51.248;6.808;2023-01-24T10:26:24;4.50;1.00
43249;DHT22;29216;51.248;6.808;2023-01-24T10:28:55;4.60;1.00
43249;DHT22;29216;51.248;6.808;2023-01-24T10:31:30;4.50;1.00
43249;DHT22;29216;51.248;6.808;2023-01-24T10:34:10;4.40;1.00
43249;DHT22;29216;51.248;6.808;2023-01-24T10:39:09;4.40;1.00
43249;DHT22;29216;51.248;6.808;2023-01-24T10:41:36;4.30;2.60
43249;DHT22;29216;51.248;6.808;2023-01-24T10:49:58;4.50;4.60
43249;DHT22;29216;51.248;6.808;2023-01-24T10:52:25;4.50;1.00
43249;DHT22;29216;51.248;6.808;2023-01-24T10:54:58;4.60;1.00
43249;DHT22;29216;51.248;6.808;2023-01-24T10:57:49;4.60;1.00
43249;DHT22;29216;51.248;6.808;2023-01-24T11:02:53;4.60;1.00
43249;DHT22;29216;51.248;6.808;2023-01-24T11:05:21;4.70;1.00
43249;DHT22;29216;51.248;6.808;2023-01-24T11:07:52;4.70;1.00
43249;DHT22;29216;51.248;6.808;2023-01-24T11:10:24;4.70;1.00
43249;DHT22;29216;51.248;6.808;2023-01-24T11:12:55;4.70;1.00
43249;DHT22;29216;51.248;6.808;2023-01-24T11:15:25;4.80;1.00
43249;DHT22;29216;51.248;6.808;2023-01-24T11:18:30;4.80;1.00
43249;DHT22;29216;51.248;6.808;2023-01-24T11:21:12;4.80;1.00
43249;DHT22;29216;51.248;6.808;2023-01-24T11:23:39;4.90;1.00
43249;DHT22;29216;51.248;6.808;2023-01-24T11:26:06;4.90;1.00
43249;DHT22;29216;51.248;6.808;2023-01-24T11:28:44;5.00;1.00
43249;DHT22;29216;51.248;6.808;2023-01-24T11:42:37;5.00;1.00
43249;DHT22;29216;51.248;6.808;2023-01-24T11:45:17;5.00;1.00
43249;DHT22;29216;51.248;6.808;2023-01-24T11:51:09;5.10;1.00
43249;DHT22;29216;51.248;6.808;2023-01-24T11:59:17;5.10;1.00
43249;DHT22;29216;51.248;6.808;2023-01-24T12:13:18;5.30;1.00
43249;DHT22;29216;51.248;6.808;2023-01-24T12:21:08;5.10;1.00
43249;DHT22;29216;51.248;6.808;2023-01-24T12:26:20;5.00;1.00
43249;DHT22;29216;51.248;6.808;2023-01-24T12:28:49;5.10;1.00
43249;DHT22;29216;51.248;6.808;2023-01-24T12:31:24;5.00;1.00
43249;DHT22;29216;51.248;6.808;2023-01-24T12:36:59;4.70;1.00
43249;DHT22;29216;51.248;6.808;2023-01-24T12:39:35;4.70;1.00
43249;DHT22;29216;51.248;6.808;2023-01-24T12:42:16;4.80;1.00
43249;DHT22;29216;51.248;6.808;2023-01-24T12:44:52;4.80;1.00
43249;DHT22;29216;51.248;6.808;2023-01-24T12:47:40;4.80;1.00
43249;DHT22;29216;51.248;6.808;2023-01-24T12:53:23;5.00;1.00
43249;DHT22;29216;51.248;6.808;2023-01-24T12:56:00;5.20;1.00
43249;DHT22;29216;51.248;6.808;2023-01-24T12:58:36;5.20;1.00
43249;DHT22;29216;51.248;6.808;2023-01-24T13:12:11;5.10;1.00
43249;DHT22;29216;51.248;6.808;2023-01-24T13:14:45;5.20;1.00
43249;DHT22;29216;51.248;6.808;2023-01-24T13:23:26;5.20;1.00
43249;DHT22;29216;51.248;6.808;2023-01-24T13:34:31;4.80;1.00
43249;DHT22;29216;51.248;6.808;2023-01-24T13:36:58;4.70;1.00
43249;DHT22;29216;51.248;6.808;2023-01-24T13:42:02;4.70;1.00
43249;DHT22;29216;51.248;6.808;2023-01-24T13:44:30;4.70;1.00
43249;DHT22;29216;51.248;6.808;2023-01-24T13:47:22;4.70;1.00
43249;DHT22;29216;51.248;6.808;2023-01-24T13:54:59;4.70;1.00
43249;DHT22;29216;51.248;6.808;2023-01-24T14:07:58;4.80;1.00
43249;DHT22;29216;51.248;6.808;2023-01-24T14:10:36;4.80;1.00
43249;DHT22;29216;51.248;6.808;2023-01-24T14:13:03;4.70;1.00
43249;DHT22;29216;51.248;6.808;2023-01-24T14:15:38;4.70;1.00
43249;DHT22;29216;51.248;6.808;2023-01-24T14:21:22;4.70;1.00
43249;DHT22;29216;51.248;6.808;2023-01-24T14:23:50;4.60;1.00
43249;DHT22;29216;51.248;6.808;2023-01-24T14:26:20;4.50;1.00
43249;DHT22;29216;51.248;6.808;2023-01-24T14:28:53;4.50;1.00
43249;DHT22;29216;51.248;6.808;2023-01-24T14:31:46;4.40;1.00
43249;DHT22;29216;51.248;6.808;2023-01-24T14:34:23;4.30;1.00
43249;DHT22;29216;51.248;6.808;2023-01-24T14:36:59;4.30;1.00
43249;DHT22;29216;51.248;6.808;2023-01-24T14:39:26;4.20;7.90
43249;DHT22;29216;51.248;6.808;2023-01-24T14:42:00;4.30;3.00
43249;DHT22;29216;51.248;6.808;2023-01-24T14:44:33;4.20;1.40
43249;DHT22;29216;51.248;6.808;2023-01-24T14:47:04;4.10;7.00
43249;DHT22;29216;51.248;6.808;2023-01-24T14:51:56;4.10;18.00
43249;DHT22;29216;51.248;6.808;2023-01-24T14:54:23;4.10;14.90
43249;DHT22;29216;51.248;6.808;2023-01-24T14:56:49;4.10;8.40
43249;DHT22;29216;51.248;6.808;2023-01-24T14:59:17;4.10;1.00
43249;DHT22;29216;51.248;6.808;2023-01-24T15:01:44;4.00;5.20
43249;DHT22;29216;51.248;6.808;2023-01-24T15:04:21;4.00;7.00
43249;DHT22;29216;51.248;6.808;2023-01-24T15:07:07;3.90;16.50
43249;DHT22;29216;51.248;6.808;2023-01-24T15:09:35;3.90;13.20
43249;DHT22;29216;51.248;6.808;2023-01-24T15:12:33;3.80;19.80
43249;DHT22;29216;51.248;6.808;2023-01-24T15:15:01;3.80;14.90
43249;DHT22;29216;51.248;6.808;2023-01-24T15:17:29;3.80;11.40
43249;DHT22;29216;51.248;6.808;2023-01-24T15:20:00;3.70;16.60
43249;DHT22;29216;51.248;6.808;2023-01-24T15:22:36;3.70;16.20
43249;DHT22;29216;51.248;6.808;2023-01-24T15:25:02;3.60;24.70
43249;DHT22;29216;51.248;6.808;2023-01-24T15:38:12;3.60;30.00
43249;DHT22;29216;51.248;6.808;2023-01-24T15:46:33;3.70;28.40
43249;DHT22;29216;51.248;6.808;2023-01-24T15:49:39;3.60;28.60
43249;DHT22;29216;51.248;6.808;2023-01-24T15:54:39;3.60;36.60
43249;DHT22;29216;51.248;6.808;2023-01-24T15:59:51;3.50;29.80
43249;DHT22;29216;51.248;6.808;2023-01-24T16:02:17;3.50;34.60
43249;DHT22;29216;51.248;6.808;2023-01-24T16:04:43;3.40;46.30
43249;DHT22;29216;51.248;6.808;2023-01-24T16:07:10;3.40;52.30
43249;DHT22;29216;51.248;6.808;2023-01-24T16:09:36;3.30;58.60
43249;DHT22;29216;51.248;6.808;2023-01-24T16:12:02;3.40;49.90
43249;DHT22;29216;51.248;6.808;2023-01-24T16:14:28;3.40;51.60
43249;DHT22;29216;51.248;6.808;2023-01-24T16:16:56;3.50;54.30
43249;DHT22;29216;51.248;6.808;2023-01-24T16:19:25;3.60;50.60
43249;DHT22;29216;51.248;6.808;2023-01-24T16:21:51;3.60;45.70
43249;DHT22;29216;51.248;6.808;2023-01-24T16:24:17;3.70;41.50
43249;DHT22;29216;51.248;6.808;2023-01-24T16:26:51;3.60;39.60
43249;DHT22;29216;51.248;6.808;2023-01-24T16:29:23;3.70;35.40
43249;DHT22;29216;51.248;6.808;2023-01-24T16:31:50;3.70;30.00
43249;DHT22;29216;51.248;6.808;2023-01-24T16:34:16;3.70;19.70
43249;DHT22;29216;51.248;6.808;2023-01-24T16:36:42;3.60;25.80
43249;DHT22;29216;51.248;6.808;2023-01-24T16:39:13;3.60;24.60
43249;DHT22;29216;51.248;6.808;2023-01-24T16:41:40;3.50;27.70
43249;DHT22;29216;51.248;6.808;2023-01-24T16:44:05;3.50;25.00
43249;DHT22;29216;51.248;6.808;2023-01-24T16:46:31;3.40;26.90
43249;DHT22;29216;51.248;6.808;2023-01-24T16:48:56;3.30;32.90
43249;DHT22;29216;51.248;6.808;2023-01-24T16:51:22;3.30;33.50
43249;DHT22;29216;51.248;6.808;2023-01-24T16:53:53;3.20;35.20
43249;DHT22;29216;51.248;6.808;2023-01-24T16:56:19;3.20;33.20
43249;DHT22;29216;51.248;6.808;2023-01-24T16:58:45;3.10;40.70
43249;DHT22;29216;51.248;6.808;2023-01-24T17:01:11;3.10;42.10
43249;DHT22;29216;51.248;6.808;2023-01-24T17:03:37;3.10;42.60
43249;DHT22;29216;51.248;6.808;2023-01-24T17:06:08;3.00;39.80
43249;DHT22;29216;51.248;6.808;2023-01-24T17:08:34;3.00;44.60
43249;DHT22;29216;51.248;6.808;2023-01-24T17:11:06;3.00;46.50
43249;DHT22;29216;51.248;6.808;2023-01-24T17:13:32;3.00;54.50
43249;DHT22;29216;51.248;6.808;2023-01-24T17:16:08;3.10;47.70
43249;DHT22;29216;51.248;6.808;2023-01-24T17:18:36;3.10;47.70
43249;DHT22;29216;51.248;6.808;2023-01-24T17:21:06;3.10;37.50
43249;DHT22;29216;51.248;6.808;2023-01-24T17:23:33;3.20;45.80
43249;DHT22;29216;51.248;6.808;2023-01-24T17:26:06;3.20;39.80
43249;DHT22;29216;51.248;6.808;2023-01-24T17:28:32;3.10;42.20
43249;DHT22;29216;51.248;6.808;2023-01-24T17:30:58;3.00;42.00
43249;DHT22;29216;51.248;6.808;2023-01-24T17:33:24;3.00;47.70
43249;DHT22;29216;51.248;6.808;2023-01-24T17:35:50;3.00;50.00
43249;DHT22;29216;51.248;6.808;2023-01-24T17:38:15;3.00;52.50
43249;DHT22;29216;51.248;6.808;2023-01-24T17:40:41;2.90;54.10
43249;DHT22;29216;51.248;6.808;2023-01-24T17:43:07;3.00;56.40
43249;DHT22;29216;51.248;6.808;2023-01-24T17:45:32;3.00;55.40
43249;DHT22;29216;51.248;6.808;2023-01-24T17:48:00;3.00;49.30
43249;DHT22;29216;51.248;6.808;2023-01-24T17:50:25;3.00;47.30
43249;DHT22;29216;51.248;6.808;2023-01-24T17:52:51;3.00;49.00
43249;DHT22;29216;51.248;6.808;2023-01-24T17:55:16;3.00;45.70
43249;DHT22;29216;51.248;6.808;2023-01-24T17:57:42;3.00;46.00
43249;DHT22;29216;51.248;6.808;2023-01-24T18:00:09;3.10;44.80
43249;DHT22;29216;51.248;6.808;2023-01-24T18:02:35;3.00;55.20
43249;DHT22;29216;51.248;6.808;2023-01-24T18:05:00;3.10;61.00
43249;DHT22;29216;51.248;6.808;2023-01-24T18:07:26;3.20;58.80
43249;DHT22;29216;51.248;6.808;2023-01-24T18:09:51;3.20;42.50
43249;DHT22;29216;51.248;6.808;2023-01-24T18:12:17;3.10;44.40
43249;DHT22;29216;51.248;6.808;2023-01-24T18:14:44;3.10;45.90
43249;DHT22;29216;51.248;6.808;2023-01-24T18:17:09;3.10;49.20
43249;DHT22;29216;51.248;6.808;2023-01-24T18:19:35;3.20;36.40
43249;DHT22;29216;51.248;6.808;2023-01-24T18:22:01;3.20;36.80
43249;DHT22;29216;51.248;6.808;2023-01-24T18:24:27;3.10;43.80
43249;DHT22;29216;51.248;6.808;2023-01-24T18:26:52;3.10;44.30
43249;DHT22;29216;51.248;6.808;2023-01-24T18:29:18;3.10;44.60
43249;DHT22;29216;51.248;6.808;2023-01-24T18:31:44;3.10;38.50
43249;DHT22;29216;51.248;6.808;2023-01-24T18:34:10;3.10;35.80
43249;DHT22;29216;51.248;6.808;2023-01-24T18:36:36;3.00;30.40
43249;DHT22;29216;51.248;6.808;2023-01-24T18:39:03;3.00;41.60
43249;DHT22;29216;51.248;6.808;2023-01-24T18:41:29;2.90;45.70
43249;DHT22;29216;51.248;6.808;2023-01-24T18:43:57;2.80;52.80
43249;DHT22;29216;51.248;6.808;2023-01-24T18:46:23;2.80;54.20